sensor_id;sensor_type;location;lat;lon;timestamp;temperature;humidity
12887;DHT22;6511;49.746;6.094;2023-01-16T00:00:53;4.80;99.90
12887;DHT22;6511;49.746;6.094;2023-01-16T00:03:19;4.80;99.90
12887;DHT22;6511;49.746;6.094;2023-01-16T00:05:45;4.70;99.90
12887;DHT22;6511;49.746;6.094;2023-01-16T00:08:11;4.80;99.90
12887;DHT22;6511;49.746;6.094;2023-01-16T00:10:37;4.70;99.90
12887;DHT22;6511;49.746;6.094;2023-01-16T00:13:02;4.70;99.90
12887;DHT22;6511;49.746;6.094;2023-01-16T00:15:28;4.70;99.90
12887;DHT22;6511;49.746;6.094;2023-01-16T00:17:53;4.60;99.90
12887;DHT22;6511;49.746;6.094;2023-01-16T00:20:19;4.60;99.90
12887;DHT22;6511;49.746;6.094;2023-01-16T00:22:45;4.50;99.90
12887;DHT22;6511;49.746;6.094;2023-01-16T00:25:10;4.50;99.90
12887;DHT22;6511;49.746;6.094;2023-01-16T00:27:36;4.50;99.90
12887;DHT22;6511;49.746;6.094;2023-01-16T00:30:03;4.50;99.90
12887;DHT22;6511;49.746;6.094;2023-01-16T00:32:29;4.50;99.90
12887;DHT22;6511;49.746;6.094;2023-01-16T00:34:54;4.60;99.90
12887;DHT22;6511;49.746;6.094;2023-01-16T00:37:20;4.50;99.90
12887;DHT22;6511;49.746;6.094;2023-01-16T00:39:46;4.50;99.90
12887;DHT22;6511;49.746;6.094;2023-01-16T00:42:11;4.50;99.90
12887;DHT22;6511;49.746;6.094;2023-01-16T00:44:37;4.50;99.90
12887;DHT22;6511;49.746;6.094;2023-01-16T00:47:02;4.50;99.90
12887;DHT22;6511;49.746;6.094;2023-01-16T00:49:28;4.40;99.90
12887;DHT22;6511;49.746;6.094;2023-01-16T00:51:54;4.40;99.90
12887;DHT22;6511;49.746;6.094;2023-01-16T00:54:19;4.40;99.90
12887;DHT22;6511;49.746;6.094;2023-01-16T00:56:45;4.40;99.90
12887;DHT22;6511;49.746;6.094;2023-01-16T00:59:11;4.30;99.90
12887;DHT22;6511;49.746;6.094;2023-01-16T01:01:36;4.30;99.90
12887;DHT22;6511;49.746;6.094;2023-01-16T01:04:03;4.20;99.90
12887;DHT22;6511;49.746;6.094;2023-01-16T01:06:28;4.10;99.90
12887;DHT22;6511;49.746;6.094;2023-01-16T01:08:54;4.10;99.90
12887;DHT22;6511;49.746;6.094;2023-01-16T01:11:20;4.10;99.90
12887;DHT22;6511;49.746;6.094;2023-01-16T01:13:46;4.10;99.90
12887;DHT22;6511;49.746;6.094;2023-01-16T01:16:12;4.10;99.90
12887;DHT22;6511;49.746;6.094;2023-01-16T01:18:38;4.10;99.90
12887;DHT22;6511;49.746;6.094;2023-01-16T01:21:04;4.10;99.90
12887;DHT22;6511;49.746;6.094;2023-01-16T01:23:30;4.10;99.90
12887;DHT22;6511;49.746;6.094;2023-01-16T01:25:55;4.10;99.90
12887;DHT22;6511;49.746;6.094;2023-01-16T01:28:21;4.10;99.90
12887;DHT22;6511;49.746;6.094;2023-01-16T01:30:47;4.10;99.90
12887;DHT22;6511;49.746;6.094;2023-01-16T01:33:13;4.10;99.90
12887;DHT22;6511;49.746;6.094;2023-01-16T01:35:38;4.10;99.90
12887;DHT22;6511;49.746;6.094;2023-01-16T01:38:04;4.10;99.90
12887;DHT22;6511;49.746;6.094;2023-01-16T01:40:32;4.20;99.90
12887;DHT22;6511;49.746;6.094;2023-01-16T01:42:57;4.10;99.90
12887;DHT22;6511;49.746;6.094;2023-01-16T01:45:31;4.20;99.90
12887;DHT22;6511;49.746;6.094;2023-01-16T01:48:04;4.10;99.90
12887;DHT22;6511;49.746;6.094;2023-01-16T01:53:37;4.10;99.90
12887;DHT22;6511;49.746;6.094;2023-01-16T01:58:39;4.20;99.90
12887;DHT22;6511;49.746;6.094;2023-01-16T02:01:05;4.20;99.90
12887;DHT22;6511;49.746;6.094;2023-01-16T02:03:34;4.30;99.90
12887;DHT22;6511;49.746;6.094;2023-01-16T02:06:07;4.30;99.90
12887;DHT22;6511;49.746;6.094;2023-01-16T02:08:36;4.30;99.90
12887;DHT22;6511;49.746;6.094;2023-01-16T02:13:27;4.30;99.90
12887;DHT22;6511;49.746;6.094;2023-01-16T02:15:55;4.30;99.90
12887;DHT22;6511;49.746;6.094;2023-01-16T02:18:40;4.30;99.90
12887;DHT22;6511;49.746;6.094;2023-01-16T02:32:46;4.20;99.90
12887;DHT22;6511;49.746;6.094;2023-01-16T02:35:27;4.20;99.90
12887;DHT22;6511;49.746;6.094;2023-01-16T02:38:06;4.20;99.90
12887;DHT22;6511;49.746;6.094;2023-01-16T02:40:38;4.20;99.90
12887;DHT22;6511;49.746;6.094;2023-01-16T02:47:07;4.20;99.90
12887;DHT22;6511;49.746;6.094;2023-01-16T02:49:28;4.20;99.90
12887;DHT22;6511;49.746;6.094;2023-01-16T02:52:30;4.20;99.90
12887;DHT22;6511;49.746;6.094;2023-01-16T02:54:59;4.20;99.90
12887;DHT22;6511;49.746;6.094;2023-01-16T02:57:33;4.20;99.90
12887;DHT22;6511;49.746;6.094;2023-01-16T03:00:02;4.20;99.90
12887;DHT22;6511;49.746;6.094;2023-01-16T03:02:28;4.20;99.90
12887;DHT22;6511;49.746;6.094;2023-01-16T03:04:53;4.20;99.90
12887;DHT22;6511;49.746;6.094;2023-01-16T03:18:22;4.30;99.90
12887;DHT22;6511;49.746;6.094;2023-01-16T03:23:52;4.30;99.90
12887;DHT22;6511;49.746;6.094;2023-01-16T03:36:56;4.20;99.90
12887;DHT22;6511;49.746;6.094;2023-01-16T03:39:28;4.20;99.90
12887;DHT22;6511;49.746;6.094;2023-01-16T03:42:01;4.20;99.90
12887;DHT22;6511;49.746;6.094;2023-01-16T03:44:36;4.20;99.90
12887;DHT22;6511;49.746;6.094;2023-01-16T03:47:05;4.20;99.90
12887;DHT22;6511;49.746;6.094;2023-01-16T03:49:46;4.20;99.90
12887;DHT22;6511;49.746;6.094;2023-01-16T03:52:17;4.20;99.90
12887;DHT22;6511;49.746;6.094;2023-01-16T03:57:21;4.20;99.90
12887;DHT22;6511;49.746;6.094;2023-01-16T03:59:48;4.20;99.90
12887;DHT22;6511;49.746;6.094;2023-01-16T04:04:55;4.10;99.90
12887;DHT22;6511;49.746;6.094;2023-01-16T04:08:21;4.10;99.90
12887;DHT22;6511;49.746;6.094;2023-01-16T04:10:38;4.10;99.90
12887;DHT22;6511;49.746;6.094;2023-01-16T04:13:11;4.10;99.90
12887;DHT22;6511;49.746;6.094;2023-01-16T04:15:42;4.20;99.90
12887;DHT22;6511;49.746;6.094;2023-01-16T04:18:10;4.10;99.90
12887;DHT22;6511;49.746;6.094;2023-01-16T04:20:36;4.20;99.90
12887;DHT22;6511;49.746;6.094;2023-01-16T04:23:03;4.20;99.90
12887;DHT22;6511;49.746;6.094;2023-01-16T04:25:28;4.20;99.90
12887;DHT22;6511;49.746;6.094;2023-01-16T04:27:54;4.20;99.90
12887;DHT22;6511;49.746;6.094;2023-01-16T04:30:20;4.20;99.90
12887;DHT22;6511;49.746;6.094;2023-01-16T04:32:45;4.10;99.90
12887;DHT22;6511;49.746;6.094;2023-01-16T04:35:11;4.10;99.90
12887;DHT22;6511;49.746;6.094;2023-01-16T04:37:37;4.10;99.90
12887;DHT22;6511;49.746;6.094;2023-01-16T04:40:03;4.10;99.90
12887;DHT22;6511;49.746;6.094;2023-01-16T04:42:28;4.10;99.90
12887;DHT22;6511;49.746;6.094;2023-01-16T04:44:54;4.00;99.90
12887;DHT22;6511;49.746;6.094;2023-01-16T04:47:20;4.00;99.90
12887;DHT22;6511;49.746;6.094;2023-01-16T04:49:45;4.00;99.90
12887;DHT22;6511;49.746;6.094;2023-01-16T04:52:11;4.00;99.90
12887;DHT22;6511;49.746;6.094;2023-01-16T04:54:36;4.00;99.90
12887;DHT22;6511;49.746;6.094;2023-01-16T04:57:02;4.00;99.90
12887;DHT22;6511;49.746;6.094;2023-01-16T04:59:28;4.00;99.90
12887;DHT22;6511;49.746;6.094;2023-01-16T05:01:54;3.90;99.90
12887;DHT22;6511;49.746;6.094;2023-01-16T05:04:19;4.00;99.90
12887;DHT22;6511;49.746;6.094;2023-01-16T05:06:46;4.10;99.90
12887;DHT22;6511;49.746;6.094;2023-01-16T05:09:12;4.00;99.90
12887;DHT22;6511;49.746;6.094;2023-01-16T05:11:38;4.00;99.90
12887;DHT22;6511;49.746;6.094;2023-01-16T05:14:04;4.00;99.90
12887;DHT22;6511;49.746;6.094;2023-01-16T05:16:34;4.00;99.90
12887;DHT22;6511;49.746;6.094;2023-01-16T05:19:01;4.00;99.90
12887;DHT22;6511;49.746;6.094;2023-01-16T05:21:27;4.00;99.90
12887;DHT22;6511;49.746;6.094;2023-01-16T05:23:52;4.00;99.90
12887;DHT22;6511;49.746;6.094;2023-01-16T05:26:18;3.90;99.90
12887;DHT22;6511;49.746;6.094;2023-01-16T05:28:43;3.90;99.90
12887;DHT22;6511;49.746;6.094;2023-01-16T05:31:09;3.90;99.90
12887;DHT22;6511;49.746;6.094;2023-01-16T05:33:35;3.90;99.90
12887;DHT22;6511;49.746;6.094;2023-01-16T05:36:01;3.90;99.90
12887;DHT22;6511;49.746;6.094;2023-01-16T05:38:27;3.90;99.90
12887;DHT22;6511;49.746;6.094;2023-01-16T05:40:52;3.90;99.90
12887;DHT22;6511;49.746;6.094;2023-01-16T05:43:19;3.90;99.90
12887;DHT22;6511;49.746;6.094;2023-01-16T05:45:44;3.80;99.90
12887;DHT22;6511;49.746;6.094;2023-01-16T05:48:10;3.80;99.90
12887;DHT22;6511;49.746;6.094;2023-01-16T05:50:36;3.90;99.90
12887;DHT22;6511;49.746;6.094;2023-01-16T05:53:01;3.80;99.90
12887;DHT22;6511;49.746;6.094;2023-01-16T05:55:27;3.80;99.90
12887;DHT22;6511;49.746;6.094;2023-01-16T05:57:53;3.80;99.90
12887;DHT22;6511;49.746;6.094;2023-01-16T06:00:19;3.80;99.90
12887;DHT22;6511;49.746;6.094;2023-01-16T06:02:44;3.70;99.90
12887;DHT22;6511;49.746;6.094;2023-01-16T06:05:13;3.70;99.90
12887;DHT22;6511;49.746;6.094;2023-01-16T06:07:39;3.60;99.90
12887;DHT22;6511;49.746;6.094;2023-01-16T06:10:08;3.60;99.90
12887;DHT22;6511;49.746;6.094;2023-01-16T06:12:34;3.50;99.90
12887;DHT22;6511;49.746;6.094;2023-01-16T06:14:59;3.40;99.90
12887;DHT22;6511;49.746;6.094;2023-01-16T06:17:25;3.40;99.90
12887;DHT22;6511;49.746;6.094;2023-01-16T06:19:51;3.30;99.90
12887;DHT22;6511;49.746;6.094;2023-01-16T06:22:16;3.30;99.90
12887;DHT22;6511;49.746;6.094;2023-01-16T06:24:42;3.20;99.90
12887;DHT22;6511;49.746;6.094;2023-01-16T06:27:07;3.10;99.90
12887;DHT22;6511;49.746;6.094;2023-01-16T06:29:33;3.10;99.90
12887;DHT22;6511;49.746;6.094;2023-01-16T06:31:59;3.00;99.90
12887;DHT22;6511;49.746;6.094;2023-01-16T06:34:24;2.90;99.90
12887;DHT22;6511;49.746;6.094;2023-01-16T06:36:51;2.90;99.90
12887;DHT22;6511;49.746;6.094;2023-01-16T06:39:16;2.90;99.90
12887;DHT22;6511;49.746;6.094;2023-01-16T06:41:42;2.80;99.90
12887;DHT22;6511;49.746;6.094;2023-01-16T06:44:08;2.80;99.90
12887;DHT22;6511;49.746;6.094;2023-01-16T06:46:34;2.70;99.90
12887;DHT22;6511;49.746;6.094;2023-01-16T06:48:59;2.70;99.90
12887;DHT22;6511;49.746;6.094;2023-01-16T06:51:25;2.70;99.90
12887;DHT22;6511;49.746;6.094;2023-01-16T06:53:50;2.70;99.90
12887;DHT22;6511;49.746;6.094;2023-01-16T06:56:16;2.60;99.90
12887;DHT22;6511;49.746;6.094;2023-01-16T06:58:42;2.60;99.90
12887;DHT22;6511;49.746;6.094;2023-01-16T07:01:08;2.50;99.90
12887;DHT22;6511;49.746;6.094;2023-01-16T07:03:34;2.60;99.90
12887;DHT22;6511;49.746;6.094;2023-01-16T07:06:00;2.50;99.90
12887;DHT22;6511;49.746;6.094;2023-01-16T07:08:25;2.60;99.90
12887;DHT22;6511;49.746;6.094;2023-01-16T07:10:51;2.50;99.90
12887;DHT22;6511;49.746;6.094;2023-01-16T07:13:16;2.50;99.90
12887;DHT22;6511;49.746;6.094;2023-01-16T07:15:46;2.50;99.90
12887;DHT22;6511;49.746;6.094;2023-01-16T07:18:31;2.50;99.90
12887;DHT22;6511;49.746;6.094;2023-01-16T07:21:16;2.50;99.90
12887;DHT22;6511;49.746;6.094;2023-01-16T07:24:06;2.40;99.90
12887;DHT22;6511;49.746;6.094;2023-01-16T07:26:34;2.50;99.90
12887;DHT22;6511;49.746;6.094;2023-01-16T07:29:02;2.50;99.90
12887;DHT22;6511;49.746;6.094;2023-01-16T07:31:29;2.40;99.90
12887;DHT22;6511;49.746;6.094;2023-01-16T07:33:56;2.40;99.90
12887;DHT22;6511;49.746;6.094;2023-01-16T07:36:21;2.50;99.90
12887;DHT22;6511;49.746;6.094;2023-01-16T07:38:47;2.40;99.90
12887;DHT22;6511;49.746;6.094;2023-01-16T07:41:13;2.50;99.90
12887;DHT22;6511;49.746;6.094;2023-01-16T07:43:39;2.50;99.90
12887;DHT22;6511;49.746;6.094;2023-01-16T07:46:05;2.60;99.90
12887;DHT22;6511;49.746;6.094;2023-01-16T07:48:31;2.60;99.90
12887;DHT22;6511;49.746;6.094;2023-01-16T07:50:57;2.70;99.90
12887;DHT22;6511;49.746;6.094;2023-01-16T07:53:25;2.70;99.90
12887;DHT22;6511;49.746;6.094;2023-01-16T07:55:55;2.80;99.90
12887;DHT22;6511;49.746;6.094;2023-01-16T07:58:21;2.80;99.90
12887;DHT22;6511;49.746;6.094;2023-01-16T08:00:47;2.90;99.90
12887;DHT22;6511;49.746;6.094;2023-01-16T08:03:13;3.00;99.90
12887;DHT22;6511;49.746;6.094;2023-01-16T08:05:41;3.10;99.90
12887;DHT22;6511;49.746;6.094;2023-01-16T08:08:09;3.20;99.90
12887;DHT22;6511;49.746;6.094;2023-01-16T08:10:35;3.20;99.90
12887;DHT22;6511;49.746;6.094;2023-01-16T08:13:00;3.30;99.90
12887;DHT22;6511;49.746;6.094;2023-01-16T08:15:26;3.30;99.90
12887;DHT22;6511;49.746;6.094;2023-01-16T08:17:51;3.40;99.90
12887;DHT22;6511;49.746;6.094;2023-01-16T08:20:17;3.40;99.90
12887;DHT22;6511;49.746;6.094;2023-01-16T08:22:47;3.50;99.90
12887;DHT22;6511;49.746;6.094;2023-01-16T08:25:14;3.50;99.90
12887;DHT22;6511;49.746;6.094;2023-01-16T08:27:41;3.50;99.90
12887;DHT22;6511;49.746;6.094;2023-01-16T08:30:07;3.60;99.90
12887;DHT22;6511;49.746;6.094;2023-01-16T08:32:33;3.60;99.90
12887;DHT22;6511;49.746;6.094;2023-01-16T08:34:58;3.60;99.90
12887;DHT22;6511;49.746;6.094;2023-01-16T08:37:24;3.60;99.90
12887;DHT22;6511;49.746;6.094;2023-01-16T08:39:50;3.60;99.90
12887;DHT22;6511;49.746;6.094;2023-01-16T08:42:15;3.70;99.90
12887;DHT22;6511;49.746;6.094;2023-01-16T08:45:16;3.70;99.90
12887;DHT22;6511;49.746;6.094;2023-01-16T08:48:01;3.70;99.90
12887;DHT22;6511;49.746;6.094;2023-01-16T08:50:46;3.80;99.90
12887;DHT22;6511;49.746;6.094;2023-01-16T08:53:31;3.80;99.90
12887;DHT22;6511;49.746;6.094;2023-01-16T08:55:57;3.90;99.90
12887;DHT22;6511;49.746;6.094;2023-01-16T08:58:22;3.90;99.90
12887;DHT22;6511;49.746;6.094;2023-01-16T09:00:48;3.90;99.90
12887;DHT22;6511;49.746;6.094;2023-01-16T09:03:15;3.90;99.90
12887;DHT22;6511;49.746;6.094;2023-01-16T09:05:44;4.00;99.90
12887;DHT22;6511;49.746;6.094;2023-01-16T09:08:10;4.00;99.90
12887;DHT22;6511;49.746;6.094;2023-01-16T09:10:35;4.00;99.90
12887;DHT22;6511;49.746;6.094;2023-01-16T09:13:01;4.00;99.90
12887;DHT22;6511;49.746;6.094;2023-01-16T09:15:47;4.00;99.90
12887;DHT22;6511;49.746;6.094;2023-01-16T09:18:13;4.00;99.90
12887;DHT22;6511;49.746;6.094;2023-01-16T09:20:39;4.00;99.90
12887;DHT22;6511;49.746;6.094;2023-01-16T09:23:05;4.10;99.90
12887;DHT22;6511;49.746;6.094;2023-01-16T09:25:31;4.20;99.90
12887;DHT22;6511;49.746;6.094;2023-01-16T09:27:58;4.20;99.90
12887;DHT22;6511;49.746;6.094;2023-01-16T09:30:25;4.20;99.90
12887;DHT22;6511;49.746;6.094;2023-01-16T09:32:50;4.30;99.90
12887;DHT22;6511;49.746;6.094;2023-01-16T09:35:16;4.40;99.90
12887;DHT22;6511;49.746;6.094;2023-01-16T09:37:45;4.50;99.90
12887;DHT22;6511;49.746;6.094;2023-01-16T09:40:20;4.40;99.90
12887;DHT22;6511;49.746;6.094;2023-01-16T09:45:36;4.40;99.90
12887;DHT22;6511;49.746;6.094;2023-01-16T09:48:10;4.40;99.90
12887;DHT22;6511;49.746;6.094;2023-01-16T09:50:45;4.40;99.90
12887;DHT22;6511;49.746;6.094;2023-01-16T09:53:37;4.50;99.90
12887;DHT22;6511;49.746;6.094;2023-01-16T09:56:28;4.50;99.90
12887;DHT22;6511;49.746;6.094;2023-01-16T10:02:28;4.60;99.90
12887;DHT22;6511;49.746;6.094;2023-01-16T10:04:57;4.60;99.90
12887;DHT22;6511;49.746;6.094;2023-01-16T10:26:20;4.70;99.90
12887;DHT22;6511;49.746;6.094;2023-01-16T10:31:46;4.50;99.90
12887;DHT22;6511;49.746;6.094;2023-01-16T10:34:31;4.30;99.90
12887;DHT22;6511;49.746;6.094;2023-01-16T10:36:59;4.10;99.90
12887;DHT22;6511;49.746;6.094;2023-01-16T10:39:36;4.00;99.90
12887;DHT22;6511;49.746;6.094;2023-01-16T10:47:52;4.10;99.90
12887;DHT22;6511;49.746;6.094;2023-01-16T10:50:37;4.10;99.90
12887;DHT22;6511;49.746;6.094;2023-01-16T10:53:08;4.10;99.90
12887;DHT22;6511;49.746;6.094;2023-01-16T10:55:38;4.10;99.90
12887;DHT22;6511;49.746;6.094;2023-01-16T10:58:08;4.10;99.90
12887;DHT22;6511;49.746;6.094;2023-01-16T11:00:39;4.00;99.90
12887;DHT22;6511;49.746;6.094;2023-01-16T11:06:27;4.00;99.90
12887;DHT22;6511;49.746;6.094;2023-01-16T11:09:05;4.00;99.90
12887;DHT22;6511;49.746;6.094;2023-01-16T11:11:35;4.00;99.90
12887;DHT22;6511;49.746;6.094;2023-01-16T11:14:31;4.10;99.90
12887;DHT22;6511;49.746;6.094;2023-01-16T11:17:26;4.10;99.90
12887;DHT22;6511;49.746;6.094;2023-01-16T11:22:44;4.20;99.90
12887;DHT22;6511;49.746;6.094;2023-01-16T11:25:14;4.20;99.90
12887;DHT22;6511;49.746;6.094;2023-01-16T11:27:44;4.20;99.90
12887;DHT22;6511;49.746;6.094;2023-01-16T11:30:26;4.30;99.90
12887;DHT22;6511;49.746;6.094;2023-01-16T11:32:54;4.30;99.90
12887;DHT22;6511;49.746;6.094;2023-01-16T11:35:29;4.30;99.90
12887;DHT22;6511;49.746;6.094;2023-01-16T11:37:57;4.30;99.90
12887;DHT22;6511;49.746;6.094;2023-01-16T11:40:25;4.30;99.90
12887;DHT22;6511;49.746;6.094;2023-01-16T11:42:52;4.40;99.90
12887;DHT22;6511;49.746;6.094;2023-01-16T11:45:42;4.40;99.90
12887;DHT22;6511;49.746;6.094;2023-01-16T11:48:26;4.40;99.90
12887;DHT22;6511;49.746;6.094;2023-01-16T11:50:54;4.40;99.90
12887;DHT22;6511;49.746;6.094;2023-01-16T11:53:20;4.40;99.90
12887;DHT22;6511;49.746;6.094;2023-01-16T12:01:19;5.00;99.90
12887;DHT22;6511;49.746;6.094;2023-01-16T12:09:17;4.60;99.90
12887;DHT22;6511;49.746;6.094;2023-01-16T12:12:10;4.60;99.90
12887;DHT22;6511;49.746;6.094;2023-01-16T12:15:25;4.60;99.90
12887;DHT22;6511;49.746;6.094;2023-01-16T12:21:02;4.70;99.90
12887;DHT22;6511;49.746;6.094;2023-01-16T12:26:24;4.90;99.90
12887;DHT22;6511;49.746;6.094;2023-01-16T12:43:04;5.00;99.90
12887;DHT22;6511;49.746;6.094;2023-01-16T12:46:03;4.90;99.90
12887;DHT22;6511;49.746;6.094;2023-01-16T12:59:53;4.90;99.90
12887;DHT22;6511;49.746;6.094;2023-01-16T13:04:51;4.80;99.90
12887;DHT22;6511;49.746;6.094;2023-01-16T13:07:19;4.80;99.90
12887;DHT22;6511;49.746;6.094;2023-01-16T13:09:49;4.80;99.90
12887;DHT22;6511;49.746;6.094;2023-01-16T13:12:28;4.80;99.90
12887;DHT22;6511;49.746;6.094;2023-01-16T13:15:19;4.60;99.90
12887;DHT22;6511;49.746;6.094;2023-01-16T13:17:53;4.50;99.90
12887;DHT22;6511;49.746;6.094;2023-01-16T13:20:22;4.50;99.90
12887;DHT22;6511;49.746;6.094;2023-01-16T13:22:53;4.40;99.90
12887;DHT22;6511;49.746;6.094;2023-01-16T13:25:34;4.40;99.90
12887;DHT22;6511;49.746;6.094;2023-01-16T13:28:06;4.30;99.90
12887;DHT22;6511;49.746;6.094;2023-01-16T13:30:33;4.30;99.90
12887;DHT22;6511;49.746;6.094;2023-01-16T13:33:18;4.40;99.90
12887;DHT22;6511;49.746;6.094;2023-01-16T13:46:43;4.30;99.90
12887;DHT22;6511;49.746;6.094;2023-01-16T13:49:22;4.30;99.90
12887;DHT22;6511;49.746;6.094;2023-01-16T13:51:51;4.20;99.90
12887;DHT22;6511;49.746;6.094;2023-01-16T13:54:31;4.30;99.90
12887;DHT22;6511;49.746;6.094;2023-01-16T13:57:02;4.40;99.90
12887;DHT22;6511;49.746;6.094;2023-01-16T13:59:50;4.40;99.90
12887;DHT22;6511;49.746;6.094;2023-01-16T14:05:24;4.30;99.90
12887;DHT22;6511;49.746;6.094;2023-01-16T14:21:24;4.10;99.90
12887;DHT22;6511;49.746;6.094;2023-01-16T14:23:53;4.10;99.90
12887;DHT22;6511;49.746;6.094;2023-01-16T14:26:51;4.00;99.90
12887;DHT22;6511;49.746;6.094;2023-01-16T14:31:55;4.00;99.90
12887;DHT22;6511;49.746;6.094;2023-01-16T14:34:26;4.20;99.90
12887;DHT22;6511;49.746;6.094;2023-01-16T14:36:55;4.30;99.90
12887;DHT22;6511;49.746;6.094;2023-01-16T14:39:34;4.20;99.90
12887;DHT22;6511;49.746;6.094;2023-01-16T14:42:26;4.30;99.90
12887;DHT22;6511;49.746;6.094;2023-01-16T14:48:09;4.10;99.90
12887;DHT22;6511;49.746;6.094;2023-01-16T14:54:50;4.00;99.90
12887;DHT22;6511;49.746;6.094;2023-01-16T14:57:20;4.10;99.90
12887;DHT22;6511;49.746;6.094;2023-01-16T15:02:57;4.10;99.90
12887;DHT22;6511;49.746;6.094;2023-01-16T15:05:31;4.10;99.90
12887;DHT22;6511;49.746;6.094;2023-01-16T15:10:47;4.10;99.90
12887;DHT22;6511;49.746;6.094;2023-01-16T15:13:22;4.10;99.90
12887;DHT22;6511;49.746;6.094;2023-01-16T15:16:07;4.00;99.90
12887;DHT22;6511;49.746;6.094;2023-01-16T15:18:42;4.00;99.90
12887;DHT22;6511;49.746;6.094;2023-01-16T15:21:26;4.00;99.90
12887;DHT22;6511;49.746;6.094;2023-01-16T15:24:18;4.00;99.90
12887;DHT22;6511;49.746;6.094;2023-01-16T15:29:40;3.90;99.90
12887;DHT22;6511;49.746;6.094;2023-01-16T15:32:14;3.90;99.90
12887;DHT22;6511;49.746;6.094;2023-01-16T15:34:46;3.80;99.90
12887;DHT22;6511;49.746;6.094;2023-01-16T15:37:21;3.70;99.90
12887;DHT22;6511;49.746;6.094;2023-01-16T15:39:47;3.80;99.90
12887;DHT22;6511;49.746;6.094;2023-01-16T15:42:21;3.70;99.90
12887;DHT22;6511;49.746;6.094;2023-01-16T15:45:21;3.70;99.90
12887;DHT22;6511;49.746;6.094;2023-01-16T15:48:24;3.70;99.90
12887;DHT22;6511;49.746;6.094;2023-01-16T15:51:00;3.70;99.90
12887;DHT22;6511;49.746;6.094;2023-01-16T15:53:33;3.70;99.90
12887;DHT22;6511;49.746;6.094;2023-01-16T15:56:04;3.70;99.90
12887;DHT22;6511;49.746;6.094;2023-01-16T15:58:31;3.80;99.90
12887;DHT22;6511;49.746;6.094;2023-01-16T16:01:03;3.80;99.90
12887;DHT22;6511;49.746;6.094;2023-01-16T16:03:49;3.90;99.90
12887;DHT22;6511;49.746;6.094;2023-01-16T16:06:16;3.80;99.90
12887;DHT22;6511;49.746;6.094;2023-01-16T16:08:53;3.80;99.90
12887;DHT22;6511;49.746;6.094;2023-01-16T16:11:28;3.80;99.90
12887;DHT22;6511;49.746;6.094;2023-01-16T16:14:29;3.80;99.90
12887;DHT22;6511;49.746;6.094;2023-01-16T16:25:53;3.70;99.90
12887;DHT22;6511;49.746;6.094;2023-01-16T16:28:24;3.50;99.90
12887;DHT22;6511;49.746;6.094;2023-01-16T16:31:16;3.50;99.90
12887;DHT22;6511;49.746;6.094;2023-01-16T16:33:43;3.50;99.90
12887;DHT22;6511;49.746;6.094;2023-01-16T16:36:17;3.50;99.90
12887;DHT22;6511;49.746;6.094;2023-01-16T16:38:47;3.50;99.90
12887;DHT22;6511;49.746;6.094;2023-01-16T16:43:42;3.50;99.90
12887;DHT22;6511;49.746;6.094;2023-01-16T16:51:48;3.40;99.90
12887;DHT22;6511;49.746;6.094;2023-01-16T16:54:14;3.50;99.90
12887;DHT22;6511;49.746;6.094;2023-01-16T16:56:50;3.50;99.90
12887;DHT22;6511;49.746;6.094;2023-01-16T16:59:26;3.50;99.90
12887;DHT22;6511;49.746;6.094;2023-01-16T17:01:57;3.50;99.90
12887;DHT22;6511;49.746;6.094;2023-01-16T17:04:30;3.60;99.90
12887;DHT22;6511;49.746;6.094;2023-01-16T17:06:55;3.60;99.90
12887;DHT22;6511;49.746;6.094;2023-01-16T17:09:25;3.60;99.90
12887;DHT22;6511;49.746;6.094;2023-01-16T17:11:51;3.70;99.90
12887;DHT22;6511;49.746;6.094;2023-01-16T17:14:16;3.70;99.90
12887;DHT22;6511;49.746;6.094;2023-01-16T17:16:42;3.70;99.90
12887;DHT22;6511;49.746;6.094;2023-01-16T17:19:22;3.80;99.90
12887;DHT22;6511;49.746;6.094;2023-01-16T17:21:50;3.80;99.90
12887;DHT22;6511;49.746;6.094;2023-01-16T17:24:18;3.70;99.90
12887;DHT22;6511;49.746;6.094;2023-01-16T17:26:44;3.70;99.90
12887;DHT22;6511;49.746;6.094;2023-01-16T17:29:09;3.70;99.90
12887;DHT22;6511;49.746;6.094;2023-01-16T17:31:37;3.70;99.90
12887;DHT22;6511;49.746;6.094;2023-01-16T17:34:04;3.70;99.90
12887;DHT22;6511;49.746;6.094;2023-01-16T17:36:30;3.60;99.90
12887;DHT22;6511;49.746;6.094;2023-01-16T17:38:57;3.60;99.90
12887;DHT22;6511;49.746;6.094;2023-01-16T17:41:24;3.60;99.90
12887;DHT22;6511;49.746;6.094;2023-01-16T17:44:13;3.60;99.90
12887;DHT22;6511;49.746;6.094;2023-01-16T17:46:58;3.50;99.90
12887;DHT22;6511;49.746;6.094;2023-01-16T17:49:24;3.50;99.90
12887;DHT22;6511;49.746;6.094;2023-01-16T17:51:49;3.50;99.90
12887;DHT22;6511;49.746;6.094;2023-01-16T17:54:15;3.50;99.90
12887;DHT22;6511;49.746;6.094;2023-01-16T17:57:00;3.40;99.90
12887;DHT22;6511;49.746;6.094;2023-01-16T17:59:26;3.40;99.90
12887;DHT22;6511;49.746;6.094;2023-01-16T18:01:53;3.40;99.90
12887;DHT22;6511;49.746;6.094;2023-01-16T18:04:19;3.40;99.90
12887;DHT22;6511;49.746;6.094;2023-01-16T18:06:44;3.40;99.90
12887;DHT22;6511;49.746;6.094;2023-01-16T18:09:12;3.30;99.90
12887;DHT22;6511;49.746;6.094;2023-01-16T18:11:40;3.30;99.90
12887;DHT22;6511;49.746;6.094;2023-01-16T18:14:25;3.40;99.90
12887;DHT22;6511;49.746;6.094;2023-01-16T18:17:29;3.30;99.90
12887;DHT22;6511;49.746;6.094;2023-01-16T18:19:57;3.30;99.90
12887;DHT22;6511;49.746;6.094;2023-01-16T18:22:23;3.30;99.90
12887;DHT22;6511;49.746;6.094;2023-01-16T18:24:50;3.30;99.90
12887;DHT22;6511;49.746;6.094;2023-01-16T18:27:17;3.30;99.90
12887;DHT22;6511;49.746;6.094;2023-01-16T18:29:43;3.30;99.90
12887;DHT22;6511;49.746;6.094;2023-01-16T18:32:09;3.20;99.90
12887;DHT22;6511;49.746;6.094;2023-01-16T18:34:55;3.20;99.90
12887;DHT22;6511;49.746;6.094;2023-01-16T18:37:22;3.20;99.90
12887;DHT22;6511;49.746;6.094;2023-01-16T18:39:48;3.20;99.90
12887;DHT22;6511;49.746;6.094;2023-01-16T18:42:32;3.20;99.90
12887;DHT22;6511;49.746;6.094;2023-01-16T18:45:28;3.20;99.90
12887;DHT22;6511;49.746;6.094;2023-01-16T18:48:13;3.20;99.90
12887;DHT22;6511;49.746;6.094;2023-01-16T18:50:58;3.10;99.90
12887;DHT22;6511;49.746;6.094;2023-01-16T18:53:49;3.10;99.90
12887;DHT22;6511;49.746;6.094;2023-01-16T18:56:42;3.10;99.90
12887;DHT22;6511;49.746;6.094;2023-01-16T18:59:27;3.10;99.90
12887;DHT22;6511;49.746;6.094;2023-01-16T19:04:39;3.10;99.90
12887;DHT22;6511;49.746;6.094;2023-01-16T19:07:27;3.20;99.90
12887;DHT22;6511;49.746;6.094;2023-01-16T19:10:00;3.20;99.90
12887;DHT22;6511;49.746;6.094;2023-01-16T19:12:28;3.10;99.90
12887;DHT22;6511;49.746;6.094;2023-01-16T19:14:58;3.10;99.90
12887;DHT22;6511;49.746;6.094;2023-01-16T19:17:24;3.10;99.90
12887;DHT22;6511;49.746;6.094;2023-01-16T19:19:49;3.20;99.90
12887;DHT22;6511;49.746;6.094;2023-01-16T19:22:15;3.10;99.90
12887;DHT22;6511;49.746;6.094;2023-01-16T19:24:41;3.10;99.90
12887;DHT22;6511;49.746;6.094;2023-01-16T19:27:06;3.10;99.90
12887;DHT22;6511;49.746;6.094;2023-01-16T19:29:32;3.10;99.90
12887;DHT22;6511;49.746;6.094;2023-01-16T19:31:57;3.10;99.90
12887;DHT22;6511;49.746;6.094;2023-01-16T19:34:25;3.10;99.90
12887;DHT22;6511;49.746;6.094;2023-01-16T19:36:52;3.10;99.90
12887;DHT22;6511;49.746;6.094;2023-01-16T19:39:17;3.10;99.90
12887;DHT22;6511;49.746;6.094;2023-01-16T19:41:43;3.10;99.90
12887;DHT22;6511;49.746;6.094;2023-01-16T19:44:27;3.10;99.90
12887;DHT22;6511;49.746;6.094;2023-01-16T19:47:19;3.10;99.90
12887;DHT22;6511;49.746;6.094;2023-01-16T19:49:45;3.10;99.90